Time;durP1;ratioP1;P1;durP2;ratioP2;P2;SDS_P1;SDS_P2;PMS_P1;PMS_P2;Temp;Humidity;BMP_temperature;BMP_pressure;BME280_temperature;BME280_humidity;BME280_pressure;Samples;Min_cycle;Max_cycle;Signal;HPM_P1;HPM_P2
2023/04/30 00:00:45;;;;;;;;;;;12.70;99.90;;;;;;5040851;28;19964;-78
2023/04/30 00:03:12;;;;;;;;;;;12.70;99.90;;;;;;5041838;28;19957;-78
2023/04/30 00:05:40;;;;;;;;;;;12.70;99.90;;;;;;5042964;28;20394;-78
2023/04/30 00:08:10;;;;;;;;;;;12.70;99.90;;;;;;5041038;28;19979;-78
2023/04/30 00:10:36;;;;;;;;;;;12.60;99.90;;;;;;5045348;28;19928;-78
2023/04/30 00:13:03;;;;;;;;;;;12.60;99.90;;;;;;5045248;28;20430;-78
2023/04/30 00:15:30;;;;;;;;;;;12.60;99.90;;;;;;5028831;28;20006;-78
2023/04/30 00:17:57;;;;;;;;;;;12.60;99.90;;;;;;5035644;28;19925;-78
2023/04/30 00:20:24;;;;;;;;;;;12.60;99.90;;;;;;5023463;28;20007;-78
2023/04/30 00:22:52;;;;;;;;;;;12.50;99.90;;;;;;5025895;28;19932;-77
2023/04/30 00:25:19;;;;;;;;;;;12.50;99.90;;;;;;5037095;28;19925;-78
2023/04/30 00:27:46;;;;;;;;;;;12.50;99.90;;;;;;5019903;28;20028;-78
2023/04/30 00:30:13;;;;;;;;;;;12.50;99.90;;;;;;5024129;28;19933;-78
2023/04/30 00:32:41;;;;;;;;;;;12.50;99.90;;;;;;5038900;28;19929;-78
2023/04/30 00:35:08;;;;;;;;;;;12.50;99.90;;;;;;5039017;28;19931;-78
2023/04/30 00:37:35;;;;;;;;;;;12.50;99.90;;;;;;5024665;28;19939;-78
2023/04/30 00:40:03;;;;;;;;;;;12.50;99.90;;;;;;5038047;28;19928;-78
2023/04/30 00:42:30;;;;;;;;;;;12.40;99.90;;;;;;5017326;28;19936;-78
2023/04/30 00:44:57;;;;;;;;;;;12.50;99.90;;;;;;5039870;28;20008;-78
2023/04/30 00:47:24;;;;;;;;;;;12.40;99.90;;;;;;5017454;28;19990;-78
2023/04/30 00:49:51;;;;;;;;;;;12.40;99.90;;;;;;5019225;28;19925;-78
2023/04/30 00:52:18;;;;;;;;;;;12.40;99.90;;;;;;5032667;28;20315;-78
2023/04/30 00:54:45;;;;;;;;;;;12.40;99.90;;;;;;5022446;28;19931;-78
2023/04/30 00:57:14;;;;;;;;;;;12.40;99.90;;;;;;5037868;28;19978;-78
2023/04/30 00:59:41;;;;;;;;;;;12.40;99.90;;;;;;5021301;28;19932;-78
2023/04/30 01:02:08;;;;;;;;;;;12.40;99.90;;;;;;5037763;28;19933;-78
2023/04/30 01:04:35;;;;;;;;;;;12.30;99.90;;;;;;5039873;28;20531;-78
2023/04/30 01:07:02;;;;;;;;;;;12.30;99.90;;;;;;5027050;28;20020;-78
2023/04/30 01:09:29;;;;;;;;;;;12.30;99.90;;;;;;5036220;28;20007;-78
2023/04/30 01:12:00;;;;;;;;;;;12.30;99.90;;;;;;5039670;28;19975;-79
2023/04/30 01:14:30;;;;;;;;;;;12.30;99.90;;;;;;5031450;28;20668;-77
2023/04/30 01:17:03;;;;;;;;;;;12.30;99.90;;;;;;5035370;28;20011;-78
2023/04/30 01:19:36;;;;;;;;;;;12.20;99.90;;;;;;5039044;28;20391;-78
2023/04/30 01:22:04;;;;;;;;;;;12.20;99.90;;;;;;5021659;28;20015;-78
2023/04/30 01:24:48;;;;;;;;;;;12.20;99.90;;;;;;5038686;28;19933;-78
2023/04/30 01:27:23;;;;;;;;;;;12.20;99.90;;;;;;5037082;28;19925;-78
2023/04/30 01:29:53;;;;;;;;;;;12.20;99.90;;;;;;5016055;28;20303;-78
2023/04/30 01:32:20;;;;;;;;;;;12.20;99.90;;;;;;5035963;28;19929;-78
2023/04/30 01:34:47;;;;;;;;;;;12.20;99.90;;;;;;5019076;28;19937;-77
2023/04/30 01:37:16;;;;;;;;;;;12.20;99.90;;;;;;5041417;28;19936;-78
2023/04/30 01:39:50;;;;;;;;;;;12.20;99.90;;;;;;5032996;28;19929;-78
2023/04/30 01:42:20;;;;;;;;;;;12.10;99.90;;;;;;5019557;28;19929;-78
2023/04/30 01:45:06;;;;;;;;;;;12.10;99.90;;;;;;5020628;28;19924;-78
2023/04/30 01:47:37;;;;;;;;;;;12.10;99.90;;;;;;5024677;28;20407;-78
2023/04/30 01:50:08;;;;;;;;;;;12.10;99.90;;;;;;5037301;28;20024;-78
2023/04/30 01:52:38;;;;;;;;;;;12.10;99.90;;;;;;5023034;28;20016;-78
2023/04/30 01:55:08;;;;;;;;;;;12.10;99.90;;;;;;5024069;28;19931;-78
2023/04/30 01:57:37;;;;;;;;;;;12.10;99.90;;;;;;5020264;28;20037;-79
2023/04/30 02:00:09;;;;;;;;;;;12.00;99.90;;;;;;5018348;28;19932;-78
2023/04/30 02:02:40;;;;;;;;;;;12.10;99.90;;;;;;5034559;28;19982;-78
2023/04/30 02:05:07;;;;;;;;;;;12.00;99.90;;;;;;5019789;28;20317;-78
2023/04/30 02:07:38;;;;;;;;;;;12.00;99.90;;;;;;5035699;28;19929;-78
2023/04/30 02:10:05;;;;;;;;;;;12.00;99.90;;;;;;5038199;28;19933;-78
2023/04/30 02:12:32;;;;;;;;;;;12.00;99.90;;;;;;5021427;28;20343;-78
2023/04/30 02:14:59;;;;;;;;;;;11.90;99.90;;;;;;5021916;28;19937;-78
2023/04/30 02:17:27;;;;;;;;;;;11.90;99.90;;;;;;5023701;28;20019;-78
2023/04/30 02:19:54;;;;;;;;;;;11.90;99.90;;;;;;5023878;28;19944;-78
2023/04/30 02:22:21;;;;;;;;;;;11.90;99.90;;;;;;5033727;28;20050;-78
2023/04/30 02:24:48;;;;;;;;;;;11.90;99.90;;;;;;5036428;28;19932;-78
2023/04/30 02:27:15;;;;;;;;;;;11.90;99.90;;;;;;5035177;28;19933;-78
2023/04/30 02:29:42;;;;;;;;;;;11.90;99.90;;;;;;5022657;28;20819;-78
2023/04/30 02:32:09;;;;;;;;;;;11.90;99.90;;;;;;5019420;28;20002;-79
2023/04/30 02:34:37;;;;;;;;;;;11.90;99.90;;;;;;5036023;28;19939;-78
2023/04/30 02:37:04;;;;;;;;;;;11.80;99.90;;;;;;5021544;28;19928;-78
2023/04/30 02:39:31;;;;;;;;;;;11.80;99.90;;;;;;5035201;28;19972;-78
2023/04/30 02:41:58;;;;;;;;;;;11.80;99.90;;;;;;5020562;28;20395;-78
2023/04/30 02:44:25;;;;;;;;;;;11.80;99.90;;;;;;5035061;28;19929;-78
2023/04/30 02:46:51;;;;;;;;;;;11.80;99.90;;;;;;5016997;28;19964;-78
2023/04/30 02:49:18;;;;;;;;;;;11.80;99.90;;;;;;5022454;28;19924;-78
2023/04/30 02:51:46;;;;;;;;;;;11.80;99.90;;;;;;5035509;28;20369;-78
2023/04/30 02:54:13;;;;;;;;;;;11.80;99.90;;;;;;5020892;28;20122;-78
2023/04/30 02:56:40;;;;;;;;;;;11.70;99.90;;;;;;5017897;28;20383;-78
2023/04/30 02:59:07;;;;;;;;;;;11.70;99.90;;;;;;5035666;28;19929;-78
2023/04/30 03:01:34;;;;;;;;;;;11.70;99.90;;;;;;5019899;28;20037;-78
2023/04/30 03:04:02;;;;;;;;;;;11.70;99.90;;;;;;5038045;28;19933;-78
2023/04/30 03:06:32;;;;;;;;;;;11.70;99.90;;;;;;5017683;28;20039;-78
2023/04/30 03:09:01;;;;;;;;;;;11.70;99.90;;;;;;5036556;28;20024;-78
2023/04/30 03:11:28;;;;;;;;;;;11.60;99.90;;;;;;5018944;28;20016;-78
2023/04/30 03:13:55;;;;;;;;;;;11.60;99.90;;;;;;5034791;28;19968;-78
2023/04/30 03:16:22;;;;;;;;;;;11.60;99.90;;;;;;5038057;28;20292;-77
2023/04/30 03:18:49;;;;;;;;;;;11.60;99.90;;;;;;5022022;28;19975;-78
2023/04/30 03:21:16;;;;;;;;;;;11.60;99.90;;;;;;5021479;28;19968;-78
2023/04/30 03:23:42;;;;;;;;;;;11.60;99.90;;;;;;5018390;28;19925;-78
2023/04/30 03:26:11;;;;;;;;;;;11.60;99.90;;;;;;5022218;28;20015;-78
2023/04/30 03:28:37;;;;;;;;;;;11.50;99.90;;;;;;5035050;28;19925;-78
2023/04/30 03:31:05;;;;;;;;;;;11.50;99.90;;;;;;5023247;28;20450;-78
2023/04/30 03:33:32;;;;;;;;;;;11.50;99.90;;;;;;5033248;28;19940;-78
2023/04/30 03:35:58;;;;;;;;;;;11.50;99.90;;;;;;5022809;28;20474;-78
2023/04/30 03:38:25;;;;;;;;;;;11.50;99.90;;;;;;5017045;28;19925;-76
2023/04/30 03:40:52;;;;;;;;;;;11.50;99.90;;;;;;5022131;28;19937;-76
2023/04/30 03:43:19;;;;;;;;;;;;;;;;;;5016693;28;19936;-76
2023/04/30 03:45:48;;;;;;;;;;;11.40;99.90;;;;;;5022673;28;19972;-78
2023/04/30 03:48:15;;;;;;;;;;;;;;;;;;5020886;28;19929;-78
2023/04/30 03:50:42;;;;;;;;;;;11.40;99.90;;;;;;5036033;28;19931;-78
2023/04/30 03:53:08;;;;;;;;;;;11.40;99.90;;;;;;5022807;28;19975;-77
2023/04/30 03:55:36;;;;;;;;;;;11.40;99.90;;;;;;5024664;28;19933;-78
2023/04/30 03:58:03;;;;;;;;;;;11.30;99.90;;;;;;5024687;28;19936;-78
2023/04/30 04:00:29;;;;;;;;;;;11.30;99.90;;;;;;5027268;28;19964;-78
2023/04/30 04:02:59;;;;;;;;;;;11.30;99.90;;;;;;5026640;28;19933;-78
2023/04/30 04:05:26;;;;;;;;;;;11.30;99.90;;;;;;5030515;28;19939;-78
2023/04/30 04:07:52;;;;;;;;;;;11.30;99.90;;;;;;5026093;28;19929;-78
2023/04/30 04:10:19;;;;;;;;;;;11.30;99.90;;;;;;5037953;28;20391;-78
2023/04/30 04:12:46;;;;;;;;;;;11.30;99.90;;;;;;5037530;28;19925;-78
2023/04/30 04:15:17;;;;;;;;;;;11.20;99.90;;;;;;5044007;28;20307;-77
2023/04/30 04:17:44;;;;;;;;;;;11.30;99.90;;;;;;5025385;28;20301;-78
2023/04/30 04:20:13;;;;;;;;;;;11.20;99.90;;;;;;5026162;28;20847;-78
2023/04/30 04:22:39;;;;;;;;;;;11.20;99.90;;;;;;5035836;28;19961;-78
2023/04/30 04:25:07;;;;;;;;;;;11.20;99.90;;;;;;5035267;28;19925;-78
2023/04/30 04:27:35;;;;;;;;;;;11.20;99.90;;;;;;5024900;28;19929;-78
2023/04/30 04:30:02;;;;;;;;;;;11.20;99.90;;;;;;5018246;28;19943;-78
2023/04/30 04:32:29;;;;;;;;;;;11.20;99.90;;;;;;5042554;28;20528;-78
2023/04/30 04:34:56;;;;;;;;;;;11.10;99.90;;;;;;5020959;28;19924;-77
2023/04/30 04:37:24;;;;;;;;;;;11.10;99.90;;;;;;5041357;28;19925;-78
2023/04/30 04:39:51;;;;;;;;;;;11.10;99.90;;;;;;5039669;28;19933;-77
2023/04/30 04:42:19;;;;;;;;;;;11.10;99.90;;;;;;5033671;28;20007;-78
2023/04/30 04:44:46;;;;;;;;;;;11.10;99.90;;;;;;5017603;28;20402;-78
2023/04/30 04:47:13;;;;;;;;;;;11.10;99.90;;;;;;5019117;28;19925;-78
2023/04/30 04:49:40;;;;;;;;;;;11.10;99.90;;;;;;5036289;28;19932;-78
2023/04/30 04:52:07;;;;;;;;;;;11.00;99.90;;;;;;5037887;28;20015;-78
2023/04/30 04:54:35;;;;;;;;;;;11.00;99.90;;;;;;5021237;28;19983;-77
2023/04/30 04:57:02;;;;;;;;;;;11.00;99.90;;;;;;5016196;28;21324;-78
2023/04/30 04:59:30;;;;;;;;;;;11.00;99.90;;;;;;5035543;28;20458;-78
2023/04/30 05:01:56;;;;;;;;;;;11.00;99.90;;;;;;5015346;28;19925;-78
2023/04/30 05:04:23;;;;;;;;;;;11.00;99.90;;;;;;5035669;28;19937;-78
2023/04/30 05:06:50;;;;;;;;;;;11.00;99.90;;;;;;5033818;28;19976;-77
2023/04/30 05:09:17;;;;;;;;;;;11.00;99.90;;;;;;5016602;28;20583;-78
2023/04/30 05:11:47;;;;;;;;;;;10.90;99.90;;;;;;5020421;28;19934;-77
2023/04/30 05:14:14;;;;;;;;;;;10.90;99.90;;;;;;5038162;28;19924;-78
2023/04/30 05:16:41;;;;;;;;;;;10.90;99.90;;;;;;5038048;28;21070;-78
2023/04/30 05:19:08;;;;;;;;;;;10.90;99.90;;;;;;5037068;28;19970;-78
2023/04/30 05:21:35;;;;;;;;;;;10.90;99.90;;;;;;5018009;28;19967;-78
2023/04/30 05:24:02;;;;;;;;;;;10.90;99.90;;;;;;5034187;28;19986;-78
2023/04/30 05:26:29;;;;;;;;;;;10.90;99.90;;;;;;5034652;28;19933;-78
2023/04/30 05:28:58;;;;;;;;;;;10.90;99.90;;;;;;5034108;28;19933;-78
2023/04/30 05:31:24;;;;;;;;;;;10.90;99.90;;;;;;5036039;28;19928;-78
2023/04/30 05:33:51;;;;;;;;;;;10.90;99.90;;;;;;5033834;28;19944;-77
2023/04/30 05:36:18;;;;;;;;;;;10.90;99.90;;;;;;5037349;28;19932;-79
2023/04/30 05:38:45;;;;;;;;;;;10.90;99.90;;;;;;5038989;28;20036;-78
2023/04/30 05:41:12;;;;;;;;;;;10.90;99.90;;;;;;5037600;28;19960;-78
2023/04/30 05:43:39;;;;;;;;;;;10.80;99.90;;;;;;5017725;28;19975;-78
2023/04/30 05:46:07;;;;;;;;;;;10.80;99.90;;;;;;5045405;28;20406;-78
2023/04/30 05:48:34;;;;;;;;;;;10.80;99.90;;;;;;5024818;28;19924;-77
2023/04/30 05:51:01;;;;;;;;;;;10.80;99.90;;;;;;5038852;28;19926;-78
2023/04/30 05:53:28;;;;;;;;;;;10.80;99.90;;;;;;5037253;28;19925;-78
2023/04/30 05:55:55;;;;;;;;;;;10.80;99.90;;;;;;5022609;28;20144;-77
2023/04/30 05:58:21;;;;;;;;;;;10.80;99.90;;;;;;5021499;28;19929;-78
2023/04/30 06:00:49;;;;;;;;;;;10.80;99.90;;;;;;5041139;28;19929;-78
2023/04/30 06:03:17;;;;;;;;;;;10.80;99.90;;;;;;5038393;28;20012;-77
2023/04/30 06:05:44;;;;;;;;;;;10.80;99.90;;;;;;5042866;28;19971;-77
2023/04/30 06:08:11;;;;;;;;;;;10.70;99.90;;;;;;5041271;28;19968;-77
2023/04/30 06:10:38;;;;;;;;;;;10.70;99.90;;;;;;5034813;28;20431;-78
2023/04/30 06:13:04;;;;;;;;;;;10.80;99.90;;;;;;5033377;28;20015;-78
2023/04/30 06:15:31;;;;;;;;;;;10.70;99.90;;;;;;5039057;28;19924;-77
2023/04/30 06:17:58;;;;;;;;;;;10.70;99.90;;;;;;5035492;28;19931;-78
2023/04/30 06:20:27;;;;;;;;;;;10.70;99.90;;;;;;5030398;28;20093;-78
2023/04/30 06:22:53;;;;;;;;;;;10.70;99.90;;;;;;5024783;28;19933;-78
2023/04/30 06:25:21;;;;;;;;;;;10.70;99.90;;;;;;5033273;28;19933;-78
2023/04/30 06:27:47;;;;;;;;;;;10.70;99.90;;;;;;5027247;28;19933;-78
2023/04/30 06:30:14;;;;;;;;;;;10.70;99.90;;;;;;5030997;28;19995;-78
2023/04/30 06:32:41;;;;;;;;;;;10.70;99.90;;;;;;5033718;28;20035;-78
2023/04/30 06:35:08;;;;;;;;;;;10.70;99.90;;;;;;5034629;28;20259;-78
2023/04/30 06:37:37;;;;;;;;;;;10.70;99.90;;;;;;5034563;28;20772;-78
2023/04/30 06:40:04;;;;;;;;;;;10.70;99.90;;;;;;5039864;28;19936;-77
2023/04/30 06:42:33;;;;;;;;;;;10.70;99.90;;;;;;5034001;28;19931;-78
2023/04/30 06:45:02;;;;;;;;;;;10.70;99.90;;;;;;5036405;28;19924;-77
2023/04/30 06:47:33;;;;;;;;;;;10.70;99.90;;;;;;5007944;28;19987;-77
2023/04/30 06:50:00;;;;;;;;;;;10.70;99.90;;;;;;5019850;28;19928;-78
2023/04/30 06:52:30;;;;;;;;;;;10.70;99.90;;;;;;5029205;28;19944;-78
2023/04/30 06:54:59;;;;;;;;;;;10.70;99.90;;;;;;5017403;28;19950;-77
2023/04/30 06:57:30;;;;;;;;;;;10.70;99.90;;;;;;5012399;28;19924;-77
2023/04/30 06:59:57;;;;;;;;;;;10.70;99.90;;;;;;5027738;28;20169;-76
2023/04/30 07:02:24;;;;;;;;;;;10.70;99.90;;;;;;5026452;28;20015;-78
2023/04/30 07:04:50;;;;;;;;;;;10.70;99.90;;;;;;5036557;28;19925;-77
2023/04/30 07:07:17;;;;;;;;;;;10.70;99.90;;;;;;5028618;28;20395;-77
2023/04/30 07:09:44;;;;;;;;;;;10.70;99.90;;;;;;5031342;28;19925;-78
2023/04/30 07:12:13;;;;;;;;;;;10.70;99.90;;;;;;5031825;28;19940;-77
2023/04/30 07:14:43;;;;;;;;;;;10.70;99.90;;;;;;5012635;28;19931;-78
2023/04/30 07:17:13;;;;;;;;;;;10.70;99.90;;;;;;5031590;28;19928;-78
2023/04/30 07:19:40;;;;;;;;;;;10.70;99.90;;;;;;5033184;28;19937;-78
2023/04/30 07:22:07;;;;;;;;;;;10.70;99.90;;;;;;5028905;28;19933;-77
2023/04/30 07:24:38;;;;;;;;;;;10.70;99.90;;;;;;5033526;28;19975;-78
2023/04/30 07:27:08;;;;;;;;;;;10.70;99.90;;;;;;5037197;28;20465;-78
2023/04/30 07:29:38;;;;;;;;;;;10.70;99.90;;;;;;5042024;28;20342;-78
2023/04/30 07:32:08;;;;;;;;;;;10.70;99.90;;;;;;5037019;28;19947;-77
2023/04/30 07:34:35;;;;;;;;;;;10.70;99.90;;;;;;5030369;28;19951;-78
2023/04/30 07:37:02;;;;;;;;;;;10.70;99.90;;;;;;5021687;28;19933;-77
2023/04/30 07:39:29;;;;;;;;;;;10.70;99.90;;;;;;5038208;28;20395;-78
2023/04/30 07:41:56;;;;;;;;;;;10.80;99.90;;;;;;5046731;28;19924;-77
2023/04/30 07:44:23;;;;;;;;;;;10.80;99.90;;;;;;5042830;28;19929;-78
2023/04/30 07:46:52;;;;;;;;;;;10.80;99.90;;;;;;5048146;28;19931;-78
2023/04/30 07:49:19;;;;;;;;;;;10.80;99.90;;;;;;5044737;28;19933;-77
2023/04/30 07:51:47;;;;;;;;;;;10.80;99.90;;;;;;5044896;28;19925;-78
2023/04/30 07:54:14;;;;;;;;;;;10.80;99.90;;;;;;5040132;28;19925;-77
2023/04/30 07:56:41;;;;;;;;;;;10.80;99.90;;;;;;5040509;28;19925;-77
2023/04/30 07:59:09;;;;;;;;;;;10.80;99.90;;;;;;5021322;28;20064;-78
2023/04/30 08:01:36;;;;;;;;;;;10.80;99.90;;;;;;5037261;28;19933;-77
2023/04/30 08:04:05;;;;;;;;;;;10.90;99.90;;;;;;5034873;28;19925;-78
2023/04/30 08:06:32;;;;;;;;;;;10.90;99.90;;;;;;5038782;28;20030;-78
2023/04/30 08:08:59;;;;;;;;;;;10.90;99.90;;;;;;5029033;28;19925;-77
2023/04/30 08:11:26;;;;;;;;;;;10.90;99.90;;;;;;5035486;28;19952;-77
2023/04/30 08:13:54;;;;;;;;;;;10.90;99.90;;;;;;5017442;28;19939;-77
2023/04/30 08:16:21;;;;;;;;;;;10.90;99.90;;;;;;5029946;28;19936;-77
2023/04/30 08:18:48;;;;;;;;;;;10.90;99.90;;;;;;5015907;28;20004;-77
2023/04/30 08:21:17;;;;;;;;;;;10.90;99.90;;;;;;5015374;28;19925;-75
2023/04/30 08:23:44;;;;;;;;;;;11.00;99.90;;;;;;5035814;28;19932;-76
2023/04/30 08:26:11;;;;;;;;;;;11.00;99.90;;;;;;5034875;28;19982;-78
2023/04/30 08:28:38;;;;;;;;;;;11.10;99.90;;;;;;5022317;28;19933;-78
2023/04/30 08:31:05;;;;;;;;;;;11.10;99.90;;;;;;5015072;28;20205;-77
2023/04/30 08:33:32;;;;;;;;;;;11.10;99.90;;;;;;5037129;28;19983;-77
2023/04/30 08:35:59;;;;;;;;;;;11.10;99.90;;;;;;5036302;28;19990;-76
2023/04/30 08:38:27;;;;;;;;;;;11.30;99.90;;;;;;5038395;28;20023;-75
2023/04/30 08:41:00;;;;;;;;;;;11.60;99.90;;;;;;5034650;28;19940;-76
2023/04/30 08:43:28;;;;;;;;;;;11.60;99.90;;;;;;5004848;28;19968;-76
2023/04/30 08:45:55;;;;;;;;;;;11.70;99.90;;;;;;5030715;28;19944;-77
2023/04/30 08:48:24;;;;;;;;;;;11.90;99.90;;;;;;5029975;28;20423;-77
2023/04/30 08:50:51;;;;;;;;;;;12.10;99.90;;;;;;5034564;28;19931;-78
2023/04/30 08:53:20;;;;;;;;;;;12.10;99.90;;;;;;5032016;28;19972;-78
2023/04/30 08:55:48;;;;;;;;;;;12.00;99.90;;;;;;5031695;28;20531;-78
2023/04/30 08:58:15;;;;;;;;;;;11.90;99.90;;;;;;5031865;28;20395;-78
2023/04/30 09:00:42;;;;;;;;;;;11.80;99.90;;;;;;5034215;28;19932;-78
2023/04/30 09:03:12;;;;;;;;;;;11.70;99.90;;;;;;5035375;28;19925;-78
2023/04/30 09:05:40;;;;;;;;;;;11.70;99.90;;;;;;5017533;28;19929;-78
2023/04/30 09:08:07;;;;;;;;;;;11.60;99.90;;;;;;5041487;28;19925;-78
2023/04/30 09:10:35;;;;;;;;;;;11.60;99.90;;;;;;5042040;28;20671;-78
2023/04/30 09:15:37;;;;;;;;;;;11.60;99.90;;;;;;4962979;28;20084;-75
2023/04/30 09:18:08;;;;;;;;;;;11.60;99.90;;;;;;4947287;28;21033;-76
2023/04/30 09:20:35;;;;;;;;;;;11.60;99.90;;;;;;5004954;28;20378;-77
2023/04/30 09:23:05;;;;;;;;;;;11.60;99.90;;;;;;5001298;28;19945;-76
2023/04/30 09:25:38;;;;;;;;;;;11.60;99.90;;;;;;5003208;28;19929;-77
2023/04/30 09:28:09;;;;;;;;;;;11.60;99.90;;;;;;4995684;28;19936;-77
2023/04/30 09:30:37;;;;;;;;;;;11.60;99.90;;;;;;4984287;28;19976;-80
2023/04/30 09:33:04;;;;;;;;;;;11.60;99.90;;;;;;4996663;28;19929;-77
2023/04/30 09:35:32;;;;;;;;;;;11.60;99.90;;;;;;4991450;28;20297;-77
2023/04/30 09:37:59;;;;;;;;;;;11.60;99.90;;;;;;4990968;28;19965;-77
2023/04/30 09:40:32;;;;;;;;;;;11.60;99.90;;;;;;4997724;28;19936;-77
2023/04/30 09:43:00;;;;;;;;;;;11.60;99.90;;;;;;4998814;28;19976;-77
2023/04/30 09:45:26;;;;;;;;;;;11.60;99.90;;;;;;4976263;28;19977;-77
2023/04/30 09:47:55;;;;;;;;;;;11.60;99.90;;;;;;4999132;28;19965;-77
2023/04/30 09:50:26;;;;;;;;;;;11.60;99.90;;;;;;5003565;28;20414;-78
2023/04/30 09:52:53;;;;;;;;;;;11.60;99.90;;;;;;5001746;28;19929;-76
2023/04/30 09:55:21;;;;;;;;;;;11.60;99.90;;;;;;5000562;28;19933;-79
2023/04/30 09:57:48;;;;;;;;;;;11.60;99.90;;;;;;5004693;28;19960;-77
2023/04/30 10:00:16;;;;;;;;;;;11.60;99.90;;;;;;5003088;28;19929;-76
2023/04/30 10:02:43;;;;;;;;;;;11.70;99.90;;;;;;5000867;28;19926;-77
2023/04/30 10:05:11;;;;;;;;;;;11.70;99.90;;;;;;4993746;28;19925;-77
2023/04/30 10:07:39;;;;;;;;;;;11.70;99.90;;;;;;4998420;28;19934;-77
2023/04/30 10:10:08;;;;;;;;;;;11.70;99.90;;;;;;5008441;28;19965;-78
2023/04/30 10:12:41;;;;;;;;;;;11.70;99.90;;;;;;4983379;28;20387;-78
2023/04/30 10:15:11;;;;;;;;;;;11.70;99.90;;;;;;5003371;28;19933;-78
2023/04/30 10:17:39;;;;;;;;;;;11.70;99.90;;;;;;4995732;28;20579;-81
2023/04/30 10:20:08;;;;;;;;;;;11.70;99.90;;;;;;5005502;28;19992;-78
2023/04/30 10:22:37;;;;;;;;;;;11.80;99.90;;;;;;5008183;28;20582;-78
2023/04/30 10:25:04;;;;;;;;;;;11.80;99.90;;;;;;4999270;28;20016;-77
2023/04/30 10:27:32;;;;;;;;;;;11.80;99.90;;;;;;5005524;28;19932;-76
2023/04/30 10:29:59;;;;;;;;;;;11.80;99.90;;;;;;5005053;28;19937;-76
2023/04/30 10:32:32;;;;;;;;;;;11.80;99.90;;;;;;5006961;28;19926;-78
2023/04/30 10:35:05;;;;;;;;;;;11.80;99.90;;;;;;5000746;28;19929;-75
2023/04/30 10:37:36;;;;;;;;;;;11.80;99.90;;;;;;5002056;28;20611;-79
2023/04/30 10:40:07;;;;;;;;;;;11.80;99.90;;;;;;5000286;28;19926;-78
2023/04/30 10:42:35;;;;;;;;;;;11.80;99.90;;;;;;5003731;28;19965;-79
2023/04/30 10:45:02;;;;;;;;;;;11.90;99.90;;;;;;5005924;28;19925;-79
2023/04/30 10:47:29;;;;;;;;;;;11.90;99.90;;;;;;4998701;28;19941;-77
2023/04/30 10:50:02;;;;;;;;;;;11.90;99.90;;;;;;5005719;28;20011;-76
2023/04/30 10:52:29;;;;;;;;;;;11.90;99.90;;;;;;4985670;28;20031;-77
2023/04/30 10:54:56;;;;;;;;;;;12.00;99.90;;;;;;5003440;28;20279;-77
2023/04/30 10:57:29;;;;;;;;;;;11.90;99.90;;;;;;5003787;28;20596;-78
2023/04/30 11:00:13;;;;;;;;;;;11.90;99.90;;;;;;5002647;28;19932;-76
2023/04/30 11:02:40;;;;;;;;;;;12.00;99.90;;;;;;5004214;28;20392;-77
2023/04/30 11:05:14;;;;;;;;;;;12.00;99.90;;;;;;5005009;28;20027;-77
2023/04/30 11:07:48;;;;;;;;;;;12.00;99.90;;;;;;5001521;28;19944;-77
2023/04/30 11:10:16;;;;;;;;;;;12.00;99.90;;;;;;4998485;28;20017;-76
2023/04/30 11:12:48;;;;;;;;;;;12.00;99.90;;;;;;5002313;28;19991;-77
2023/04/30 11:15:19;;;;;;;;;;;12.00;99.90;;;;;;4978627;28;19964;-77
2023/04/30 11:17:48;;;;;;;;;;;12.10;99.90;;;;;;5003766;28;19933;-77
2023/04/30 11:20:19;;;;;;;;;;;12.10;99.90;;;;;;5000581;28;19940;-76
2023/04/30 11:22:46;;;;;;;;;;;12.10;99.90;;;;;;5002660;28;19926;-76
2023/04/30 11:25:13;;;;;;;;;;;12.10;99.90;;;;;;5006681;28;20068;-76
2023/04/30 11:27:41;;;;;;;;;;;12.10;99.90;;;;;;4992096;28;19933;-77
2023/04/30 11:30:13;;;;;;;;;;;12.10;99.90;;;;;;5000534;28;20032;-79
2023/04/30 11:32:41;;;;;;;;;;;12.20;99.90;;;;;;5004169;28;20023;-74
2023/04/30 11:35:08;;;;;;;;;;;12.20;99.90;;;;;;4980628;28;20024;-77
2023/04/30 11:37:36;;;;;;;;;;;12.20;99.90;;;;;;4999654;28;20376;-77
2023/04/30 11:40:04;;;;;;;;;;;12.40;99.90;;;;;;5000204;28;20430;-76
2023/04/30 11:42:33;;;;;;;;;;;12.50;99.90;;;;;;4992476;28;19949;-77
2023/04/30 11:45:04;;;;;;;;;;;12.60;99.90;;;;;;4995339;28;19929;-77
2023/04/30 11:47:45;;;;;;;;;;;12.60;99.90;;;;;;4991402;28;19926;-76
2023/04/30 11:50:13;;;;;;;;;;;12.60;99.90;;;;;;4987208;28;21052;-75
2023/04/30 11:52:40;;;;;;;;;;;12.70;99.90;;;;;;4993605;28;19925;-74
2023/04/30 11:55:15;;;;;;;;;;;12.80;99.90;;;;;;5003121;28;19972;-75
2023/04/30 11:57:42;;;;;;;;;;;12.70;99.90;;;;;;5007987;28;19932;-73
2023/04/30 12:00:13;;;;;;;;;;;12.70;99.90;;;;;;5004530;28;19973;-75
2023/04/30 12:02:40;;;;;;;;;;;12.60;99.90;;;;;;5006620;28;19926;-75
2023/04/30 12:05:14;;;;;;;;;;;12.60;99.90;;;;;;5007463;28;19968;-76
2023/04/30 12:07:45;;;;;;;;;;;12.60;99.90;;;;;;4989098;28;20020;-75
2023/04/30 12:10:12;;;;;;;;;;;12.60;99.90;;;;;;4993961;28;19926;-75
2023/04/30 12:12:39;;;;;;;;;;;12.60;99.90;;;;;;5005138;28;21958;-75
2023/04/30 12:15:13;;;;;;;;;;;12.60;99.90;;;;;;5008346;28;19976;-75
2023/04/30 12:17:40;;;;;;;;;;;12.70;99.90;;;;;;5011567;28;20016;-75
2023/04/30 12:20:08;;;;;;;;;;;12.70;99.90;;;;;;5006372;28;20011;-75
2023/04/30 12:22:37;;;;;;;;;;;12.70;99.90;;;;;;5009090;28;19979;-75
2023/04/30 12:25:07;;;;;;;;;;;12.70;99.90;;;;;;5014235;28;19925;-74
2023/04/30 12:27:34;;;;;;;;;;;12.70;99.90;;;;;;5006097;28;19930;-74
2023/04/30 12:30:03;;;;;;;;;;;12.70;99.90;;;;;;5010096;28;19952;-75
2023/04/30 12:32:30;;;;;;;;;;;12.70;99.90;;;;;;5009163;28;19925;-75
2023/04/30 12:34:58;;;;;;;;;;;12.70;99.90;;;;;;5009042;28;20442;-75
2023/04/30 12:37:26;;;;;;;;;;;12.80;99.90;;;;;;5007855;28;20296;-74
2023/04/30 12:39:56;;;;;;;;;;;12.80;99.90;;;;;;5008136;28;19934;-75
2023/04/30 12:42:24;;;;;;;;;;;12.80;99.90;;;;;;4990877;28;20422;-74
2023/04/30 12:44:51;;;;;;;;;;;12.80;99.90;;;;;;5010289;28;20003;-74
2023/04/30 12:47:19;;;;;;;;;;;12.90;99.90;;;;;;5005677;28;19926;-73
2023/04/30 12:49:46;;;;;;;;;;;12.90;99.90;;;;;;5010945;28;20654;-75
2023/04/30 12:52:14;;;;;;;;;;;12.90;99.90;;;;;;5015015;28;19929;-73
2023/04/30 12:54:41;;;;;;;;;;;12.90;99.90;;;;;;5006146;28;19933;-73
2023/04/30 12:57:10;;;;;;;;;;;12.90;99.90;;;;;;5013311;28;20092;-74
2023/04/30 12:59:38;;;;;;;;;;;12.90;99.90;;;;;;5010599;28;19937;-75
2023/04/30 13:02:06;;;;;;;;;;;13.00;99.90;;;;;;5010414;28;20020;-74
2023/04/30 13:04:33;;;;;;;;;;;13.00;99.90;;;;;;5009096;28;19937;-75
2023/04/30 13:07:00;;;;;;;;;;;13.00;99.90;;;;;;5008834;28;19976;-75
2023/04/30 13:09:27;;;;;;;;;;;13.00;99.90;;;;;;5007620;28;20036;-74
2023/04/30 13:11:54;;;;;;;;;;;13.10;99.90;;;;;;5007473;28;19940;-74
2023/04/30 13:14:22;;;;;;;;;;;13.10;99.90;;;;;;5007400;28;20068;-74
2023/04/30 13:16:49;;;;;;;;;;;13.10;99.90;;;;;;5004388;28;19929;-74
2023/04/30 13:19:15;;;;;;;;;;;13.10;99.90;;;;;;5007774;28;19926;-75
2023/04/30 13:21:42;;;;;;;;;;;13.20;99.90;;;;;;5006497;28;19975;-74
2023/04/30 13:24:10;;;;;;;;;;;13.20;99.90;;;;;;5007196;28;19980;-74
2023/04/30 13:26:37;;;;;;;;;;;13.20;99.90;;;;;;5011135;28;20304;-74
2023/04/30 13:29:04;;;;;;;;;;;13.20;99.90;;;;;;5005776;28;20031;-74
2023/04/30 13:31:32;;;;;;;;;;;13.20;99.90;;;;;;5003717;28;20199;-74
2023/04/30 13:33:59;;;;;;;;;;;13.30;99.90;;;;;;5006614;28;19972;-75
2023/04/30 13:36:26;;;;;;;;;;;13.30;99.90;;;;;;5012598;28;20441;-75
2023/04/30 13:38:53;;;;;;;;;;;13.30;99.90;;;;;;4998931;28;19926;-73
2023/04/30 13:41:21;;;;;;;;;;;13.30;99.90;;;;;;5008498;28;20019;-74
2023/04/30 13:43:48;;;;;;;;;;;13.30;99.90;;;;;;5006726;28;19936;-74
2023/04/30 13:46:15;;;;;;;;;;;13.40;99.90;;;;;;5001734;28;19960;-75
2023/04/30 13:48:46;;;;;;;;;;;13.40;99.90;;;;;;5004258;28;19933;-75
2023/04/30 13:51:13;;;;;;;;;;;13.50;99.90;;;;;;5010604;28;19940;-75
2023/04/30 13:53:40;;;;;;;;;;;13.50;99.90;;;;;;5007880;28;19929;-75
2023/04/30 13:56:07;;;;;;;;;;;13.50;99.90;;;;;;5009897;28;20392;-75
2023/04/30 13:58:34;;;;;;;;;;;13.50;99.90;;;;;;5005362;28;19979;-74
2023/04/30 14:01:01;;;;;;;;;;;13.50;99.90;;;;;;5008868;28;20380;-77
2023/04/30 14:03:28;;;;;;;;;;;13.50;99.90;;;;;;5008737;28;19936;-77
2023/04/30 14:05:56;;;;;;;;;;;13.60;99.90;;;;;;5009450;28;19925;-77
2023/04/30 14:08:23;;;;;;;;;;;13.60;99.90;;;;;;5015122;28;20450;-76
2023/04/30 14:10:50;;;;;;;;;;;13.60;99.90;;;;;;5009400;28;19971;-76
2023/04/30 14:13:17;;;;;;;;;;;13.60;99.90;;;;;;5004292;28;20396;-76
2023/04/30 14:15:44;;;;;;;;;;;13.70;99.90;;;;;;5006776;28;20007;-77
2023/04/30 14:18:13;;;;;;;;;;;13.70;99.90;;;;;;5010509;28;19929;-76
2023/04/30 14:20:40;;;;;;;;;;;13.70;99.90;;;;;;5006890;28;19925;-76
2023/04/30 14:23:09;;;;;;;;;;;13.70;99.90;;;;;;5006501;28;19932;-76
2023/04/30 14:25:36;;;;;;;;;;;13.70;99.90;;;;;;5012795;28;19968;-76